createdAt,value
2023-02-16T07:59:00.543Z,99507.00
2023-02-16T08:01:32.118Z,99511.00
2023-02-16T08:03:59.498Z,99510.00
2023-02-16T08:06:27.083Z,99517.00
2023-02-16T08:08:54.346Z,99504.00
2023-02-16T08:11:25.326Z,99505.00
2023-02-16T08:13:53.116Z,99513.00
2023-02-16T08:16:28.902Z,99516.00
2023-02-16T08:19:00.213Z,99518.00
2023-02-16T08:21:34.483Z,99527.00
2023-02-16T08:24:13.174Z,99526.00
2023-02-16T08:26:44.706Z,99520.00
2023-02-16T08:29:14.916Z,99520.00
2023-02-16T08:31:42.635Z,99536.00
2023-02-16T08:34:10.711Z,99530.00
2023-02-16T08:36:40.182Z,99521.00
2023-02-16T08:39:19.007Z,99518.00
2023-02-16T08:41:49.877Z,99516.00
2023-02-16T08:44:20.345Z,99512.00
2023-02-16T08:46:49.516Z,99513.00
2023-02-16T08:49:21.924Z,99520.00
2023-02-16T08:51:56.905Z,99520.00
2023-02-16T08:54:30.487Z,99521.00
2023-02-16T08:57:00.015Z,99524.00
2023-02-16T08:59:28.838Z,99513.00
2023-02-16T09:01:59.125Z,99513.00
2023-02-16T09:04:29.270Z,99524.00
2023-02-16T09:06:58.563Z,99522.00
2023-02-16T09:09:27.402Z,99530.00
2023-02-16T09:11:55.185Z,99512.00
2023-02-16T09:14:23.114Z,99513.00
2023-02-16T09:16:50.605Z,99492.00
2023-02-16T09:19:21.757Z,99525.00
2023-02-16T09:21:50.964Z,99512.00
2023-02-16T09:24:19.102Z,99522.00
2023-02-16T09:26:46.594Z,99527.00
2023-02-16T09:29:14.834Z,99518.00
2023-02-16T09:31:44.267Z,99527.00
2023-02-16T09:34:22.607Z,99538.00
2023-02-16T09:36:51.016Z,99541.00
2023-02-16T09:39:19.150Z,99547.00
2023-02-16T09:42:54.088Z,99542.00
2023-02-16T09:45:22.849Z,99548.00
2023-02-16T09:47:52.148Z,99534.00
2023-02-16T09:50:53.824Z,99544.00
2023-02-16T09:53:34.853Z,99529.00
2023-02-16T09:56:37.806Z,99531.00
2023-02-16T10:00:08.498Z,99530.00
2023-02-16T10:03:12.207Z,99525.00
2023-02-16T10:06:34.377Z,99528.00
2023-02-16T10:09:16.479Z,99530.00
2023-02-16T10:12:02.262Z,99524.00
2023-02-16T10:14:51.225Z,99528.00
2023-02-16T10:17:38.433Z,99543.00
2023-02-16T10:20:35.973Z,99548.00
2023-02-16T10:23:50.387Z,99538.00
2023-02-16T10:26:44.173Z,99535.00
2023-02-16T10:29:20.697Z,99540.00
2023-02-16T10:32:20.807Z,99531.00
2023-02-16T10:35:10.905Z,99528.00
2023-02-16T10:37:54.697Z,99531.00
2023-02-16T10:41:27.992Z,99531.00
2023-02-16T10:44:43.836Z,99526.00
2023-02-16T10:47:45.907Z,99530.00
2023-02-16T10:50:52.133Z,99530.00
2023-02-16T10:53:39.186Z,99532.00
2023-02-16T10:57:01.040Z,99528.00
2023-02-16T10:59:44.553Z,99537.00
2023-02-16T11:02:23.686Z,99533.00
2023-02-16T11:04:55.940Z,99533.00
2023-02-16T11:07:31.313Z,99530.00
2023-02-16T11:10:18.181Z,99529.00
2023-02-16T11:12:45.519Z,99523.00
2023-02-16T11:15:18.942Z,99520.00
2023-02-16T11:18:08.674Z,99521.00
2023-02-16T11:20:42.226Z,99520.00
2023-02-16T11:23:31.808Z,99516.00
2023-02-16T11:26:10.525Z,99508.00
2023-02-16T11:28:46.647Z,99506.00
2023-02-16T11:31:40.297Z,99504.00
2023-02-16T11:34:51.175Z,99506.00
2023-02-16T11:37:34.104Z,99496.00
2023-02-16T11:40:31.012Z,99494.00
2023-02-16T11:43:02.035Z,99485.00
2023-02-16T11:45:36.806Z,99487.00
2023-02-16T11:48:24.765Z,99487.00
2023-02-16T11:51:10.667Z,99485.00
2023-02-16T11:53:42.624Z,99482.00
2023-02-16T11:56:33.023Z,99470.00
2023-02-16T11:59:21.177Z,99468.00
2023-02-16T12:02:49.035Z,99474.00
2023-02-16T12:06:22.203Z,99476.00
2023-02-16T12:09:14.144Z,99478.00
2023-02-16T12:12:14.723Z,99470.00
2023-02-16T12:15:24.889Z,99473.00
2023-02-16T12:18:58.416Z,99463.00
2023-02-16T12:21:42.389Z,99472.00
2023-02-16T12:24:41.277Z,99458.00
2023-02-16T12:27:43.174Z,99470.00
2023-02-16T12:31:27.516Z,99462.00
2023-02-16T12:34:37.714Z,99408.00
2023-02-16T12:37:17.352Z,99409.00
2023-02-16T12:40:15.161Z,99418.00
2023-02-16T12:43:04.102Z,99403.00
2023-02-16T12:45:42.289Z,99392.00
2023-02-16T12:48:57.451Z,99435.00
2023-02-16T12:51:38.251Z,99432.00
2023-02-16T12:54:22.419Z,99413.00
2023-02-16T12:57:15.858Z,99409.00
2023-02-16T13:00:15.038Z,99410.00
2023-02-16T13:03:15.500Z,99409.00
2023-02-16T13:05:45.978Z,99426.00
2023-02-16T13:09:13.905Z,99420.00
2023-02-16T13:12:39.351Z,99402.00
2023-02-16T13:15:37.181Z,99411.00
2023-02-16T13:18:48.960Z,99416.00
2023-02-16T13:22:18.325Z,99401.00
2023-02-16T13:25:09.924Z,99409.00
2023-02-16T13:28:52.657Z,99414.00
2023-02-16T13:32:08.910Z,99408.00
2023-02-16T13:36:19.588Z,99408.00
2023-02-16T13:39:48.843Z,99414.00
2023-02-16T13:42:45.155Z,99413.00
2023-02-16T13:45:37.084Z,99398.00
2023-02-16T13:48:46.380Z,99405.00
2023-02-16T13:51:23.696Z,99405.00
2023-02-16T13:54:03.908Z,99396.00
2023-02-16T13:56:30.990Z,99405.00
2023-02-16T13:59:18.580Z,99399.00
2023-02-16T14:01:49.332Z,99401.00
2023-02-16T14:04:22.547Z,99411.00
2023-02-16T14:07:32.142Z,99396.00
2023-02-16T14:09:59.543Z,99400.00
2023-02-16T14:12:33.829Z,99407.00
2023-02-16T14:15:19.311Z,99391.00
2023-02-16T14:17:47.304Z,99393.00
2023-02-16T14:20:15.768Z,99395.00
2023-02-16T14:22:50.818Z,99391.00
2023-02-16T14:25:23.975Z,99396.00
2023-02-16T14:27:58.578Z,99389.00
2023-02-16T14:30:42.531Z,99391.00
2023-02-16T14:33:12.732Z,99389.00
2023-02-16T14:36:14.281Z,99371.00
2023-02-16T14:38:41.461Z,99381.00
2023-02-16T14:41:36.811Z,99374.00
2023-02-16T14:44:06.926Z,99380.00
2023-02-16T14:47:52.819Z,99383.00
2023-02-16T14:51:19.463Z,99388.00
2023-02-16T14:54:48.517Z,99376.00
2023-02-16T14:57:41.304Z,99368.00
2023-02-16T15:01:08.648Z,99378.00
2023-02-16T15:03:52.747Z,99385.00
2023-02-16T15:06:43.061Z,99384.00
2023-02-16T15:09:24.618Z,99387.00
2023-02-16T15:12:22.878Z,99387.00
2023-02-16T15:15:04.681Z,99380.00
2023-02-16T15:17:47.163Z,99383.00
2023-02-16T15:20:34.915Z,99386.00
2023-02-16T15:23:17.653Z,99393.00
2023-02-16T15:26:19.941Z,99391.00
2023-02-16T15:29:18.657Z,99373.00
2023-02-16T15:31:46.686Z,99386.00
2023-02-16T15:34:36.185Z,99382.00
2023-02-16T15:37:32.874Z,99385.00
2023-02-16T15:40:29.789Z,99386.00
2023-02-16T15:43:37.512Z,99387.00
2023-02-16T15:46:33.090Z,99378.00
2023-02-16T15:49:22.289Z,99376.00
2023-02-16T15:51:49.933Z,99375.00
2023-02-16T15:54:35.642Z,99378.00
2023-02-16T15:57:30.885Z,99368.00
2023-02-16T16:00:20.869Z,99360.00
2023-02-16T16:02:58.354Z,99364.00
2023-02-16T16:05:33.103Z,99360.00
2023-02-16T16:08:01.716Z,99363.00
2023-02-16T16:10:36.881Z,99366.00
2023-02-16T16:13:28.726Z,99370.00
2023-02-16T16:16:02.140Z,99371.00
2023-02-16T16:18:51.068Z,99367.00
2023-02-16T16:21:34.182Z,99375.00
2023-02-16T16:24:11.743Z,99376.00
2023-02-16T16:26:57.829Z,99376.00
2023-02-16T16:29:46.789Z,99376.00
2023-02-16T16:32:30.179Z,99379.00
2023-02-16T16:34:57.805Z,99371.00
2023-02-16T16:37:35.853Z,99376.00
2023-02-16T16:40:27.693Z,99375.00
2023-02-16T16:43:18.350Z,99371.00
2023-02-16T16:45:54.054Z,99378.00
2023-02-16T16:48:37.193Z,99370.00
2023-02-16T16:51:38.235Z,99376.00
2023-02-16T16:54:39.845Z,99371.00
2023-02-16T16:57:18.482Z,99371.00
2023-02-16T16:59:45.776Z,99370.00
2023-02-16T17:02:13.189Z,99373.00
2023-02-16T17:04:40.464Z,99379.00
2023-02-16T17:07:07.919Z,99376.00
2023-02-16T17:09:35.265Z,99389.00
2023-02-16T17:12:03.392Z,99381.00
2023-02-16T17:14:30.722Z,99389.00
2023-02-16T17:16:58.451Z,99392.00
2023-02-16T17:19:29.354Z,99396.00
2023-02-16T17:21:56.763Z,99392.00
2023-02-16T17:24:24.159Z,99392.00
2023-02-16T17:26:51.514Z,99391.00
2023-02-16T17:29:18.899Z,99397.00
2023-02-16T17:31:46.287Z,99394.00
2023-02-16T17:34:13.697Z,99395.00
2023-02-16T17:36:41.168Z,99407.00
2023-02-16T17:39:08.501Z,99409.00
2023-02-16T17:41:35.788Z,99409.00
2023-02-16T17:44:04.186Z,99405.00
2023-02-16T17:46:32.588Z,99413.00
2023-02-16T17:48:59.898Z,99406.00
2023-02-16T17:51:27.374Z,99411.00
2023-02-16T17:53:54.775Z,99408.00
2023-02-16T17:56:24.692Z,99404.00
2023-02-16T17:58:52.323Z,99410.00
2023-02-16T18:01:21.345Z,99403.00
2023-02-16T18:03:48.990Z,99413.00
2023-02-16T18:06:25.047Z,99409.00
2023-02-16T18:08:53.377Z,99409.00
2023-02-16T18:11:20.679Z,99401.00
2023-02-16T18:13:48.337Z,99404.00
2023-02-16T18:16:21.757Z,99408.00
2023-02-16T18:18:49.154Z,99411.00
2023-02-16T18:21:16.532Z,99410.00
2023-02-16T18:23:43.891Z,99415.00
2023-02-16T18:26:16.517Z,99423.00
2023-02-16T18:28:44.723Z,99419.00
2023-02-16T18:31:13.061Z,99419.00
2023-02-16T18:33:40.562Z,99418.00
2023-02-16T18:36:08.987Z,99422.00
2023-02-16T18:38:36.542Z,99418.00
2023-02-16T18:41:04.735Z,99420.00
2023-02-16T18:43:32.108Z,99423.00
2023-02-16T18:45:59.587Z,99434.00
2023-02-16T18:48:26.935Z,99437.00
2023-02-16T18:50:54.241Z,99438.00
2023-02-16T18:53:21.546Z,99433.00
2023-02-16T18:55:48.873Z,99442.00
2023-02-16T18:58:16.393Z,99440.00
2023-02-16T19:00:44.099Z,99440.00
2023-02-16T19:03:11.577Z,99441.00
2023-02-16T19:05:38.883Z,99438.00
2023-02-16T19:08:06.707Z,99440.00
2023-02-16T19:10:34.255Z,99435.00
2023-02-16T19:13:02.243Z,99435.00
2023-02-16T19:15:30.087Z,99430.00
2023-02-16T19:17:57.786Z,99443.00
2023-02-16T19:20:25.620Z,99443.00
2023-02-16T19:22:53.166Z,99447.00
2023-02-16T19:25:21.274Z,99455.00
2023-02-16T19:27:48.822Z,99457.00
2023-02-16T19:30:16.424Z,99462.00
2023-02-16T19:32:43.860Z,99452.00
2023-02-16T19:35:12.431Z,99448.00
2023-02-16T19:37:39.931Z,99456.00
2023-02-16T19:40:11.104Z,99456.00
2023-02-16T19:42:39.894Z,99468.00
2023-02-16T19:45:08.644Z,99465.00
2023-02-16T19:47:35.951Z,99466.00
2023-02-16T19:50:04.067Z,99468.00
2023-02-16T19:52:31.483Z,99476.00
2023-02-16T19:54:58.803Z,99465.00
2023-02-16T19:57:26.165Z,99463.00
2023-02-16T19:59:53.470Z,99461.00
2023-02-16T20:02:20.855Z,99468.00
2023-02-16T20:04:48.215Z,99468.00
2023-02-16T20:07:15.576Z,99462.00
2023-02-16T20:09:42.888Z,99468.00
2023-02-16T20:12:10.261Z,99474.00
2023-02-16T20:14:37.554Z,99471.00
2023-02-16T20:17:05.075Z,99468.00
2023-02-16T20:19:32.390Z,99473.00
2023-02-16T20:21:59.728Z,99480.00
2023-02-16T20:24:27.066Z,99476.00
2023-02-16T20:26:54.471Z,99477.00
2023-02-16T20:29:22.094Z,99485.00
2023-02-16T20:31:57.940Z,99476.00
2023-02-16T20:34:27.579Z,99468.00
2023-02-16T20:36:55.210Z,99468.00
2023-02-16T20:39:23.571Z,99467.00
2023-02-16T20:41:51.010Z,99462.00
2023-02-16T20:44:18.386Z,99462.00
2023-02-16T20:46:45.913Z,99465.00
2023-02-16T20:49:13.589Z,99459.00
2023-02-16T20:51:41.354Z,99458.00
2023-02-16T20:54:09.428Z,99457.00
2023-02-16T20:56:36.744Z,99465.00
2023-02-16T20:59:05.118Z,99464.00
2023-02-16T21:01:46.533Z,99463.00
2023-02-16T21:04:18.861Z,99464.00
2023-02-16T21:06:46.994Z,99456.00
2023-02-16T21:09:15.845Z,99465.00
2023-02-16T21:11:43.949Z,99467.00
2023-02-16T21:14:13.058Z,99467.00
2023-02-16T21:16:41.118Z,99461.00
2023-02-16T21:19:21.006Z,99463.00
2023-02-16T21:21:50.009Z,99461.00
2023-02-16T21:24:17.451Z,99464.00
2023-02-16T21:26:44.922Z,99463.00
2023-02-16T21:29:12.694Z,99475.00
2023-02-16T21:31:40.187Z,99472.00
2023-02-16T21:34:07.549Z,99465.00
2023-02-16T21:36:34.905Z,99473.00
2023-02-16T21:39:02.989Z,99477.00
2023-02-16T21:41:30.686Z,99470.00
2023-02-16T21:44:13.653Z,99470.00
2023-02-16T21:46:47.716Z,99468.00
2023-02-16T21:49:20.190Z,99467.00
2023-02-16T21:51:49.024Z,99465.00
2023-02-16T21:54:42.218Z,99464.00
2023-02-16T21:57:09.529Z,99457.00
2023-02-16T21:59:37.137Z,99453.00
2023-02-16T22:02:04.502Z,99449.00
2023-02-16T22:04:31.811Z,99449.00
2023-02-16T22:06:59.095Z,99443.00
2023-02-16T22:09:26.415Z,99445.00
2023-02-16T22:11:53.775Z,99448.00
2023-02-16T22:14:21.090Z,99449.00
2023-02-16T22:16:50.726Z,99446.00
2023-02-16T22:19:18.903Z,99448.00
2023-02-16T22:21:48.259Z,99441.00
2023-02-16T22:24:18.503Z,99444.00
2023-02-16T22:26:49.234Z,99442.00
2023-02-16T22:29:17.564Z,99423.00
2023-02-16T22:31:50.240Z,99451.00
2023-02-16T22:34:23.986Z,99433.00
2023-02-16T22:36:51.698Z,99436.00
2023-02-16T22:39:20.361Z,99428.00
2023-02-16T22:41:51.289Z,99431.00
2023-02-16T22:44:18.656Z,99440.00
2023-02-16T22:46:45.978Z,99448.00
2023-02-16T22:49:13.284Z,99444.00
2023-02-16T22:51:40.613Z,99436.00
2023-02-16T22:54:08.477Z,99448.00
2023-02-16T22:56:36.076Z,99448.00
2023-02-16T22:59:03.592Z,99433.00
2023-02-16T23:01:31.574Z,99444.00
2023-02-16T23:04:01.485Z,99455.00
2023-02-16T23:06:38.162Z,99443.00
2023-02-16T23:09:15.628Z,99448.00
2023-02-16T23:11:43.012Z,99453.00
2023-02-16T23:14:16.517Z,99451.00
2023-02-16T23:16:54.781Z,99452.00
2023-02-16T23:19:26.849Z,99446.00
2023-02-16T23:21:54.976Z,99449.00
2023-02-16T23:24:24.068Z,99452.00
2023-02-16T23:26:52.692Z,99442.00
2023-02-16T23:29:20.686Z,99444.00
2023-02-16T23:31:49.098Z,99445.00
